createdAt,value
2023-01-04T00:01:22.000Z,7.8
2023-01-04T00:04:06.000Z,7.8
2023-01-04T00:06:51.000Z,7.9
2023-01-04T00:09:36.000Z,8
2023-01-04T00:12:20.000Z,8.1
2023-01-04T00:15:05.000Z,8.1
2023-01-04T00:17:49.000Z,8.2
2023-01-04T00:19:07.000Z,8.2
2023-01-04T00:20:34.000Z,8.3
2023-01-04T00:23:19.000Z,8.3
2023-01-04T00:26:03.000Z,8.4
2023-01-04T00:28:48.000Z,8.5
2023-01-04T00:31:33.000Z,8.5
2023-01-04T00:34:17.000Z,8.5
2023-01-04T00:37:02.000Z,8.6
2023-01-04T00:39:47.000Z,8.8
2023-01-04T00:42:31.000Z,8.8
2023-01-04T00:45:16.000Z,8.7
2023-01-04T00:46:34.000Z,8.6
2023-01-04T00:48:01.000Z,8.7
2023-01-04T00:50:45.000Z,8.7
2023-01-04T00:53:30.000Z,8.6
2023-01-04T00:56:14.000Z,8.8
2023-01-04T00:58:59.000Z,8.9
2023-01-04T01:01:44.000Z,8.8
2023-01-04T01:04:28.000Z,8.8
2023-01-04T01:07:13.000Z,8.8
2023-01-04T01:09:58.000Z,8.8
2023-01-04T01:12:42.000Z,8.8
2023-01-04T01:14:00.000Z,8.9
2023-01-04T01:15:27.000Z,9
2023-01-04T01:18:12.000Z,9
2023-01-04T01:20:56.000Z,8.9
2023-01-04T01:23:41.000Z,8.9
2023-01-04T01:26:25.000Z,8.9
2023-01-04T01:29:10.000Z,8.9
2023-01-04T01:31:55.000Z,9
2023-01-04T01:34:39.000Z,9
2023-01-04T01:37:24.000Z,8.9
2023-01-04T01:40:09.000Z,9
2023-01-04T01:41:27.000Z,8.9
2023-01-04T01:42:53.000Z,8.9
2023-01-04T01:45:38.000Z,8.9
2023-01-04T01:48:23.000Z,8.7
2023-01-04T01:51:07.000Z,8.7
2023-01-04T01:53:52.000Z,8.6
2023-01-04T01:56:37.000Z,8.6
2023-01-04T01:59:21.000Z,8.5
2023-01-04T02:02:06.000Z,8.5
2023-01-04T02:04:50.000Z,8.5
2023-01-04T02:07:35.000Z,8.5
2023-01-04T02:08:53.000Z,8.6
2023-01-04T02:10:20.000Z,8.6
2023-01-04T02:13:04.000Z,8.7
2023-01-04T02:15:49.000Z,8.7
2023-01-04T02:18:34.000Z,8.6
2023-01-04T02:21:18.000Z,8.5
2023-01-04T02:24:03.000Z,8.5
2023-01-04T02:26:48.000Z,8.6
2023-01-04T02:29:32.000Z,8.5
2023-01-04T02:32:17.000Z,8.4
2023-01-04T02:35:01.000Z,8.5
2023-01-04T02:36:19.000Z,8.5
2023-01-04T02:37:46.000Z,8.5
2023-01-04T02:40:31.000Z,8.5
2023-01-04T02:46:00.000Z,8.5
2023-01-04T02:48:45.000Z,8.4
2023-01-04T02:51:29.000Z,8.4
2023-01-04T02:54:14.000Z,8.4
2023-01-04T02:56:59.000Z,8.4
2023-01-04T02:59:43.000Z,8.5
2023-01-04T03:02:28.000Z,8.4
2023-01-04T03:03:46.000Z,8.5
2023-01-04T03:05:13.000Z,8.5
2023-01-04T03:07:57.000Z,8.5
2023-01-04T03:10:42.000Z,8.5
2023-01-04T03:13:26.000Z,8.6
2023-01-04T03:16:11.000Z,8.6
2023-01-04T03:18:56.000Z,8.5
2023-01-04T03:21:40.000Z,8.6
2023-01-04T03:24:25.000Z,8.6
2023-01-04T03:27:10.000Z,8.6
2023-01-04T03:29:54.000Z,8.7
2023-01-04T03:31:12.000Z,8.7
2023-01-04T03:32:39.000Z,8.7
2023-01-04T03:35:24.000Z,8.7
2023-01-04T03:38:08.000Z,8.7
2023-01-04T03:40:53.000Z,8.7
2023-01-04T03:43:37.000Z,8.6
2023-01-04T03:46:22.000Z,8.7
2023-01-04T03:49:07.000Z,8.7
2023-01-04T03:51:51.000Z,8.8
2023-01-04T03:54:36.000Z,8.8
2023-01-04T03:57:21.000Z,8.8
2023-01-04T03:58:39.000Z,8.8
2023-01-04T04:00:05.000Z,8.8
2023-01-04T04:02:50.000Z,8.8
2023-01-04T04:05:35.000Z,8.7
2023-01-04T04:11:04.000Z,8.7
2023-01-04T04:13:48.000Z,8.7
2023-01-04T04:16:33.000Z,8.6
2023-01-04T04:19:18.000Z,8.7
2023-01-04T04:22:02.000Z,8.7
2023-01-04T04:24:47.000Z,8.7
2023-01-04T04:26:05.000Z,8.7
2023-01-04T04:27:32.000Z,8.8
2023-01-04T04:30:16.000Z,8.8
2023-01-04T04:33:17.000Z,8.8
2023-01-04T04:36:02.000Z,8.8
2023-01-04T04:38:47.000Z,8.8
2023-01-04T04:41:31.000Z,8.8
2023-01-04T04:47:01.000Z,8.9
2023-01-04T04:49:45.000Z,8.9
2023-01-04T04:52:30.000Z,9
2023-01-04T04:53:48.000Z,9
2023-01-04T04:55:14.000Z,9
2023-01-04T04:57:59.000Z,9
2023-01-04T05:03:28.000Z,9
2023-01-04T05:06:13.000Z,9.1
2023-01-04T05:08:58.000Z,9.1
2023-01-04T05:11:42.000Z,9.2
2023-01-04T05:14:27.000Z,9.2
2023-01-04T05:17:12.000Z,9.3
2023-01-04T05:19:56.000Z,9.3
2023-01-04T05:22:41.000Z,9.3
2023-01-04T05:25:26.000Z,9.3
2023-01-04T05:28:10.000Z,9.4
2023-01-04T05:30:55.000Z,9.3
2023-01-04T05:33:40.000Z,9.4
2023-01-04T05:36:40.000Z,9.3
2023-01-04T05:39:25.000Z,9.4
2023-01-04T05:42:10.000Z,9.4
2023-01-04T05:44:54.000Z,9.4
2023-01-04T05:47:39.000Z,9.5
2023-01-04T05:48:57.000Z,9.5
2023-01-04T05:50:24.000Z,9.5
2023-01-04T05:53:08.000Z,9.5
2023-01-04T05:55:53.000Z,9.5
2023-01-04T06:04:07.000Z,9.5
2023-01-04T06:06:52.000Z,9.5
2023-01-04T06:12:21.000Z,9.6
2023-01-04T06:15:05.000Z,9.6
2023-01-04T06:16:23.000Z,9.6
2023-01-04T06:17:50.000Z,9.6
2023-01-04T06:20:35.000Z,9.6
2023-01-04T06:23:19.000Z,9.6
2023-01-04T06:26:04.000Z,9.6
2023-01-04T06:28:49.000Z,9.7
2023-01-04T06:31:33.000Z,9.7
2023-01-04T06:34:18.000Z,9.7
2023-01-04T06:37:03.000Z,9.7
2023-01-04T06:39:47.000Z,9.8
2023-01-04T06:42:32.000Z,9.8
2023-01-04T06:43:50.000Z,9.8
2023-01-04T06:45:17.000Z,9.8
2023-01-04T06:48:18.000Z,9.8
2023-01-04T06:51:02.000Z,9.8
2023-01-04T06:53:47.000Z,9.9
2023-01-04T06:56:31.000Z,9.9
2023-01-04T06:59:16.000Z,9.9
2023-01-04T07:02:01.000Z,9.9
2023-01-04T07:04:45.000Z,9.9
2023-01-04T07:07:30.000Z,9.9
2023-01-04T07:10:15.000Z,9.9
2023-01-04T07:11:32.000Z,9.9
2023-01-04T07:16:00.000Z,9.9
2023-01-04T07:18:45.000Z,9.9
2023-01-04T07:21:30.000Z,9.9
2023-01-04T07:24:14.000Z,9.9
2023-01-04T07:26:59.000Z,9.9
2023-01-04T07:29:43.000Z,9.9
2023-01-04T07:32:28.000Z,9.9
2023-01-04T07:35:13.000Z,9.9
2023-01-04T07:37:57.000Z,10
2023-01-04T07:39:15.000Z,9.9
2023-01-04T07:40:42.000Z,10
2023-01-04T07:43:27.000Z,10
2023-01-04T07:46:11.000Z,9.9
2023-01-04T07:48:56.000Z,10
2023-01-04T07:51:41.000Z,10
2023-01-04T07:54:42.000Z,10.1
2023-01-04T07:57:26.000Z,10.1
2023-01-04T08:00:11.000Z,10.1
2023-01-04T08:02:56.000Z,10.1
2023-01-04T08:06:58.000Z,10.2
2023-01-04T08:08:25.000Z,10.2
2023-01-04T08:11:09.000Z,10.2
2023-01-04T08:13:54.000Z,10.3
2023-01-04T08:16:39.000Z,10.3
2023-01-04T08:19:23.000Z,10.4
2023-01-04T08:22:08.000Z,10.5
2023-01-04T08:27:37.000Z,10.7
2023-01-04T08:30:22.000Z,10.8
2023-01-04T08:34:24.000Z,10.8
2023-01-04T08:35:51.000Z,10.8
2023-01-04T08:38:36.000Z,10.7
2023-01-04T08:41:37.000Z,10.7
2023-01-04T08:44:22.000Z,10.7
2023-01-04T08:49:51.000Z,10.8
2023-01-04T08:55:20.000Z,10.8
2023-01-04T08:58:05.000Z,10.8
2023-01-04T09:00:49.000Z,10.8
2023-01-04T09:02:07.000Z,10.8
2023-01-04T09:03:34.000Z,10.8
2023-01-04T09:06:19.000Z,10.8
2023-01-04T09:09:03.000Z,10.9
2023-01-04T09:11:48.000Z,10.9
2023-01-04T09:14:33.000Z,10.9
2023-01-04T09:17:17.000Z,10.9
2023-01-04T09:20:02.000Z,11
2023-01-04T09:22:47.000Z,11
2023-01-04T09:25:31.000Z,11
2023-01-04T09:28:16.000Z,11
2023-01-04T09:29:34.000Z,11
2023-01-04T09:31:00.000Z,11
2023-01-04T09:33:45.000Z,11
2023-01-04T09:36:30.000Z,11
2023-01-04T09:39:14.000Z,11
2023-01-04T09:41:59.000Z,11
2023-01-04T09:44:44.000Z,11
2023-01-04T09:47:28.000Z,11
2023-01-04T09:50:13.000Z,11
2023-01-04T09:53:14.000Z,11
2023-01-04T09:55:59.000Z,11
2023-01-04T09:57:16.000Z,11
2023-01-04T10:01:28.000Z,11.1
2023-01-04T10:04:13.000Z,11.1
2023-01-04T10:06:57.000Z,11.2
2023-01-04T10:09:42.000Z,11.2
2023-01-04T10:12:26.000Z,11.2
2023-01-04T10:15:11.000Z,11.2
2023-01-04T10:17:56.000Z,11.2
2023-01-04T10:20:40.000Z,11.3
2023-01-04T10:23:25.000Z,11.3
2023-01-04T10:24:43.000Z,11.3
2023-01-04T10:26:10.000Z,11.3
2023-01-04T10:28:54.000Z,11.3
2023-01-04T10:31:39.000Z,11.4
2023-01-04T10:34:24.000Z,11.4
2023-01-04T10:37:08.000Z,11.4
2023-01-04T10:42:37.000Z,11.5
2023-01-04T10:45:22.000Z,11.5
2023-01-04T10:48:07.000Z,11.5
2023-01-04T10:50:51.000Z,11.6
2023-01-04T10:52:09.000Z,11.6
2023-01-04T10:53:36.000Z,11.5
2023-01-04T10:56:21.000Z,11.5
2023-01-04T10:59:05.000Z,11.5
2023-01-04T11:01:50.000Z,11.5
2023-01-04T11:04:35.000Z,11.5
2023-01-04T11:07:19.000Z,11.5
2023-01-04T11:10:04.000Z,11.5
2023-01-04T11:12:49.000Z,11.5
2023-01-04T11:15:33.000Z,11.6
2023-01-04T11:18:18.000Z,11.6
2023-01-04T11:19:36.000Z,11.6
2023-01-04T11:21:02.000Z,11.6
2023-01-04T11:23:47.000Z,11.6
2023-01-04T11:26:32.000Z,11.6
2023-01-04T11:29:33.000Z,11.6
2023-01-04T11:32:17.000Z,11.6
2023-01-04T11:35:02.000Z,11.6
2023-01-04T11:37:47.000Z,11.7
2023-01-04T11:43:16.000Z,11.8
2023-01-04T11:46:01.000Z,11.8
2023-01-04T11:47:18.000Z,11.8
2023-01-04T11:48:45.000Z,11.8
2023-01-04T11:51:30.000Z,11.8
2023-01-04T11:54:15.000Z,11.8
2023-01-04T11:56:59.000Z,11.8
2023-01-04T11:59:44.000Z,11.8
2023-01-04T12:02:28.000Z,11.8
2023-01-04T12:05:13.000Z,11.8
2023-01-04T12:07:58.000Z,11.9
2023-01-04T12:10:42.000Z,11.9
2023-01-04T12:16:12.000Z,11.9
2023-01-04T12:18:56.000Z,11.9
2023-01-04T12:21:41.000Z,11.9
2023-01-04T12:24:26.000Z,11.9
2023-01-04T12:27:10.000Z,11.9
2023-01-04T12:29:55.000Z,12
2023-01-04T12:32:39.000Z,12
2023-01-04T12:35:24.000Z,12
2023-01-04T12:38:09.000Z,12.1
2023-01-04T12:40:53.000Z,12.1
2023-01-04T12:42:11.000Z,12
2023-01-04T12:43:38.000Z,12
2023-01-04T12:49:07.000Z,12.1
2023-01-04T12:51:52.000Z,12.1
2023-01-04T12:54:37.000Z,12.1
2023-01-04T12:57:21.000Z,12.2
2023-01-04T13:00:06.000Z,12.2
2023-01-04T13:02:51.000Z,12.2
2023-01-04T13:05:35.000Z,12.2
2023-01-04T13:08:20.000Z,12.2
2023-01-04T13:09:38.000Z,12.3
2023-01-04T13:11:04.000Z,12.3
2023-01-04T13:13:49.000Z,12.3
2023-01-04T13:16:34.000Z,12.4
2023-01-04T13:25:04.000Z,12.5
2023-01-04T13:30:33.000Z,12.5
2023-01-04T13:33:18.000Z,12.5
2023-01-04T13:36:03.000Z,12.5
2023-01-04T13:37:20.000Z,12.5
2023-01-04T13:38:47.000Z,12.5
2023-01-04T13:41:48.000Z,12.6
2023-01-04T13:44:33.000Z,12.5
2023-01-04T13:47:18.000Z,12.5
2023-01-04T13:50:02.000Z,12.5
2023-01-04T13:52:47.000Z,12.5
2023-01-04T13:58:16.000Z,12.7
2023-01-04T14:01:01.000Z,12.7
2023-01-04T14:03:45.000Z,12.7
2023-01-04T14:05:03.000Z,12.7
2023-01-04T14:06:30.000Z,12.7
2023-01-04T14:09:15.000Z,12.8
2023-01-04T14:11:59.000Z,12.8
2023-01-04T14:14:44.000Z,12.9
2023-01-04T14:17:29.000Z,12.9
2023-01-04T14:20:13.000Z,12.8
2023-01-04T14:22:58.000Z,12.9
2023-01-04T14:25:43.000Z,12.9
2023-01-04T14:28:27.000Z,12.9
2023-01-04T14:31:12.000Z,12.9
2023-01-04T14:33:56.000Z,12.9
2023-01-04T14:36:41.000Z,12.9
2023-01-04T14:39:26.000Z,12.9
2023-01-04T14:42:10.000Z,12.9
2023-01-04T14:44:55.000Z,13
2023-01-04T14:47:40.000Z,13
2023-01-04T14:50:24.000Z,13
2023-01-04T14:53:09.000Z,12.9
2023-01-04T14:55:54.000Z,13.1
2023-01-04T14:58:38.000Z,13.1
2023-01-04T14:59:56.000Z,13
2023-01-04T15:01:39.000Z,13
2023-01-04T15:04:24.000Z,13
2023-01-04T15:07:08.000Z,13
2023-01-04T15:09:53.000Z,13
2023-01-04T15:15:22.000Z,13
2023-01-04T15:18:07.000Z,13
2023-01-04T15:20:52.000Z,13
2023-01-04T15:23:36.000Z,13
2023-01-04T15:26:21.000Z,13
2023-01-04T15:27:39.000Z,13
2023-01-04T15:29:06.000Z,13
2023-01-04T15:31:50.000Z,13
2023-01-04T15:34:35.000Z,13
2023-01-04T15:37:20.000Z,13
2023-01-04T15:40:04.000Z,13
2023-01-04T15:42:49.000Z,13
2023-01-04T15:45:33.000Z,13
2023-01-04T15:48:18.000Z,13
2023-01-04T15:51:03.000Z,13
2023-01-04T15:53:47.000Z,13
2023-01-04T15:55:05.000Z,13
2023-01-04T15:56:32.000Z,13
2023-01-04T15:59:17.000Z,12.9
2023-01-04T16:02:01.000Z,13
2023-01-04T16:07:31.000Z,13.1
2023-01-04T16:10:15.000Z,13
2023-01-04T16:13:00.000Z,13
2023-01-04T16:15:45.000Z,13
2023-01-04T16:18:29.000Z,13.1
2023-01-04T16:21:14.000Z,13.1
2023-01-04T16:22:32.000Z,13
2023-01-04T16:23:58.000Z,13
2023-01-04T16:26:43.000Z,13
2023-01-04T16:29:28.000Z,13
2023-01-04T16:32:12.000Z,13
2023-01-04T16:34:57.000Z,13
2023-01-04T16:40:26.000Z,13.1
2023-01-04T16:43:11.000Z,13.1
2023-01-04T16:45:56.000Z,13.1
2023-01-04T16:48:40.000Z,13.1
2023-01-04T16:49:58.000Z,13.1
2023-01-04T16:51:25.000Z,13.1
2023-01-04T16:54:09.000Z,13.1
2023-01-04T16:56:54.000Z,13
2023-01-04T16:59:39.000Z,13
2023-01-04T17:02:23.000Z,13
2023-01-04T17:05:08.000Z,13.1
2023-01-04T17:07:53.000Z,13.1
2023-01-04T17:13:22.000Z,13.1
2023-01-04T17:16:07.000Z,13
2023-01-04T17:17:24.000Z,13.1
2023-01-04T17:18:51.000Z,13.1
2023-01-04T17:21:36.000Z,13.1
2023-01-04T17:24:21.000Z,13
2023-01-04T17:27:05.000Z,13
2023-01-04T17:29:50.000Z,13
2023-01-04T17:32:34.000Z,13
2023-01-04T17:35:19.000Z,13
2023-01-04T17:38:04.000Z,13
2023-01-04T17:40:48.000Z,13
2023-01-04T17:44:51.000Z,13.1
2023-01-04T17:49:02.000Z,13.1
2023-01-04T17:51:47.000Z,13.1
2023-01-04T17:54:32.000Z,13
2023-01-04T18:03:02.000Z,12.9
2023-01-04T18:05:47.000Z,13
2023-01-04T18:08:31.000Z,12.9
2023-01-04T18:11:32.000Z,13
2023-01-04T18:14:17.000Z,13
2023-01-04T18:17:01.000Z,13
2023-01-04T18:19:46.000Z,13
2023-01-04T18:22:31.000Z,13.1
2023-01-04T18:28:00.000Z,13.1
2023-01-04T18:30:45.000Z,13.1
2023-01-04T18:33:29.000Z,13.1
2023-01-04T18:36:14.000Z,13.1
2023-01-04T18:38:59.000Z,13.1
2023-01-04T18:40:16.000Z,13.1
2023-01-04T18:41:43.000Z,13.1
2023-01-04T18:44:44.000Z,13
2023-01-04T18:47:29.000Z,13.1
2023-01-04T18:50:14.000Z,13.1
2023-01-04T18:52:58.000Z,13.1
2023-01-04T18:58:27.000Z,13.1
2023-01-04T19:01:12.000Z,13
2023-01-04T19:03:57.000Z,13
2023-01-04T19:06:41.000Z,13.1
2023-01-04T19:07:59.000Z,13
2023-01-04T19:09:26.000Z,13
2023-01-04T19:12:11.000Z,13.1
2023-01-04T19:14:55.000Z,13.1
2023-01-04T19:17:40.000Z,13.1
2023-01-04T19:20:25.000Z,13
2023-01-04T19:23:09.000Z,13
2023-01-04T19:25:54.000Z,13
2023-01-04T19:28:38.000Z,12.9
2023-01-04T19:31:23.000Z,12.9
2023-01-04T19:34:08.000Z,12.8
2023-01-04T19:35:26.000Z,12.7
2023-01-04T19:36:52.000Z,12.7
2023-01-04T19:39:37.000Z,12.7
2023-01-04T19:42:38.000Z,12.6
2023-01-04T19:45:23.000Z,12.5
2023-01-04T19:48:07.000Z,12.5
2023-01-04T19:50:52.000Z,12.4
2023-01-04T19:53:37.000Z,12.2
2023-01-04T19:56:21.000Z,12.1
2023-01-04T19:59:06.000Z,11.9
2023-01-04T20:01:51.000Z,11.8
2023-01-04T20:03:08.000Z,11.7
2023-01-04T20:04:35.000Z,11.7
2023-01-04T20:07:20.000Z,11.6
2023-01-04T20:10:04.000Z,11.5
2023-01-04T20:12:49.000Z,11.6
2023-01-04T20:15:50.000Z,11.5
2023-01-04T20:18:35.000Z,11.5
2023-01-04T20:21:19.000Z,11.5
2023-01-04T20:24:04.000Z,11.5
2023-01-04T20:26:49.000Z,11.5
2023-01-04T20:29:33.000Z,11.6
2023-01-04T20:30:51.000Z,11.6
2023-01-04T20:32:18.000Z,11.6
2023-01-04T20:35:03.000Z,11.7
2023-01-04T20:37:47.000Z,11.6
2023-01-04T20:40:32.000Z,11.7
2023-01-04T20:43:17.000Z,11.7
2023-01-04T20:46:01.000Z,11.6
2023-01-04T20:48:46.000Z,11.6
2023-01-04T20:51:30.000Z,11.6
2023-01-04T20:54:15.000Z,11.7
2023-01-04T20:57:00.000Z,11.7
2023-01-04T20:58:17.000Z,11.7
2023-01-04T20:59:44.000Z,11.6
2023-01-04T21:02:29.000Z,11.6
2023-01-04T21:05:14.000Z,11.7
2023-01-04T21:07:58.000Z,11.7
2023-01-04T21:10:43.000Z,11.8
2023-01-04T21:13:28.000Z,11.8
2023-01-04T21:16:12.000Z,11.7
2023-01-04T21:18:57.000Z,11.7
2023-01-04T21:21:42.000Z,11.6
2023-01-04T21:25:44.000Z,11.7
2023-01-04T21:27:11.000Z,11.7
2023-01-04T21:29:55.000Z,11.7
2023-01-04T21:32:40.000Z,11.8
2023-01-04T21:38:09.000Z,11.8
2023-01-04T21:40:54.000Z,11.9
2023-01-04T21:43:39.000Z,11.9
2023-01-04T21:46:40.000Z,11.9
2023-01-04T21:49:24.000Z,12
2023-01-04T21:52:09.000Z,11.9
2023-01-04T21:53:27.000Z,11.8
2023-01-04T21:54:54.000Z,11.8
2023-01-04T21:57:38.000Z,11.8
2023-01-04T22:00:23.000Z,11.8
2023-01-04T22:03:08.000Z,11.9
2023-01-04T22:05:52.000Z,11.8
2023-01-04T22:08:37.000Z,11.8
2023-01-04T22:11:21.000Z,11.8
2023-01-04T22:14:06.000Z,11.7
2023-01-04T22:16:51.000Z,11.7
2023-01-04T22:19:35.000Z,11.7
2023-01-04T22:20:53.000Z,11.7
2023-01-04T22:25:05.000Z,11.9
2023-01-04T22:27:49.000Z,11.9
2023-01-04T22:30:34.000Z,11.9
2023-01-04T22:33:19.000Z,12
2023-01-04T22:36:03.000Z,12
2023-01-04T22:38:48.000Z,12
2023-01-04T22:41:32.000Z,12
2023-01-04T22:44:17.000Z,12
2023-01-04T22:47:02.000Z,12
2023-01-04T22:48:20.000Z,12
2023-01-04T22:49:46.000Z,12
2023-01-04T22:52:31.000Z,12
2023-01-04T22:55:16.000Z,12
2023-01-04T22:58:00.000Z,12.1
2023-01-04T23:00:45.000Z,12.1
2023-01-04T23:03:30.000Z,12
2023-01-04T23:06:14.000Z,12
2023-01-04T23:08:59.000Z,12
2023-01-04T23:11:44.000Z,12
2023-01-04T23:14:28.000Z,12
2023-01-04T23:15:46.000Z,12
2023-01-04T23:17:13.000Z,12
2023-01-04T23:19:57.000Z,12
2023-01-04T23:22:42.000Z,12
2023-01-04T23:25:27.000Z,11.9
2023-01-04T23:28:11.000Z,11.9
2023-01-04T23:33:41.000Z,11.9
2023-01-04T23:36:25.000Z,11.9
2023-01-04T23:39:10.000Z,11.9
2023-01-04T23:41:55.000Z,11.9
2023-01-04T23:43:12.000Z,11.9
2023-01-04T23:44:39.000Z,12
2023-01-04T23:47:24.000Z,12
2023-01-04T23:50:09.000Z,12
2023-01-04T23:52:53.000Z,12
2023-01-04T23:55:38.000Z,11.9
2023-01-04T23:58:22.000Z,11.9
